createdAt,value
2023-03-04T00:00:19.910Z,4.30
2023-03-04T00:02:49.522Z,5.53
2023-03-04T00:05:19.103Z,3.70
2023-03-04T00:07:48.572Z,4.23
2023-03-04T00:10:18.151Z,4.47
2023-03-04T00:12:47.644Z,5.13
2023-03-04T00:15:17.103Z,4.53
2023-03-04T00:17:46.854Z,6.50
2023-03-04T00:20:16.873Z,5.80
2023-03-04T00:22:47.958Z,6.40
2023-03-04T00:25:17.714Z,9.07
2023-03-04T00:27:47.329Z,6.43
2023-03-04T00:30:16.920Z,6.87
2023-03-04T00:32:46.397Z,7.60
2023-03-04T00:35:15.905Z,5.67
2023-03-04T00:37:45.364Z,9.23
2023-03-04T00:40:15.158Z,6.47
2023-03-04T00:42:44.642Z,7.20
2023-03-04T00:45:14.166Z,7.20
2023-03-04T00:47:43.606Z,5.53
2023-03-04T00:50:13.617Z,7.47
2023-03-04T00:52:43.201Z,7.67
2023-03-04T00:55:12.714Z,8.30
2023-03-04T00:57:42.184Z,6.00
2023-03-04T01:00:13.876Z,5.97
2023-03-04T01:02:43.389Z,9.00
2023-03-04T01:05:13.206Z,7.17
2023-03-04T01:07:42.684Z,8.00
2023-03-04T01:10:14.778Z,4.73
2023-03-04T01:12:45.106Z,4.97
2023-03-04T01:15:16.361Z,5.90
2023-03-04T01:17:46.011Z,4.73
2023-03-04T01:20:15.891Z,6.40
2023-03-04T01:22:45.742Z,5.67
2023-03-04T01:25:15.207Z,3.33
2023-03-04T01:27:44.718Z,3.77
2023-03-04T01:30:14.931Z,4.70
2023-03-04T01:32:44.391Z,6.30
2023-03-04T01:35:13.878Z,5.10
2023-03-04T01:37:43.345Z,3.43
2023-03-04T01:40:14.940Z,3.63
2023-03-04T01:42:45.526Z,3.83
2023-03-04T01:45:19.420Z,3.63
2023-03-04T01:47:51.337Z,4.60
2023-03-04T01:50:31.295Z,3.17
2023-03-04T01:53:01.492Z,4.53
2023-03-04T01:55:32.311Z,3.80
2023-03-04T01:58:01.786Z,4.03
2023-03-04T02:00:35.127Z,4.40
2023-03-04T02:03:15.344Z,3.93
2023-03-04T02:05:49.291Z,4.60
2023-03-04T02:08:22.346Z,2.57
2023-03-04T02:10:53.212Z,2.67
2023-03-04T02:13:23.000Z,2.10
2023-03-04T02:15:52.632Z,2.40
2023-03-04T02:18:26.465Z,3.27
2023-03-04T02:21:23.077Z,3.57
2023-03-04T02:24:15.226Z,2.80
2023-03-04T02:26:47.009Z,3.07
2023-03-04T02:29:18.932Z,3.37
2023-03-04T02:31:55.014Z,2.10
2023-03-04T02:34:35.367Z,3.10
2023-03-04T02:37:07.293Z,3.83
2023-03-04T02:39:46.366Z,2.30
2023-03-04T02:42:16.355Z,4.57
2023-03-04T02:44:50.005Z,3.07
2023-03-04T02:47:20.640Z,2.07
2023-03-04T02:49:50.539Z,2.63
2023-03-04T02:52:23.711Z,3.80
2023-03-04T02:54:53.253Z,1.70
2023-03-04T02:57:22.706Z,2.37
2023-03-04T02:59:52.146Z,1.80
2023-03-04T03:02:21.629Z,3.25
2023-03-04T03:04:51.057Z,2.03
2023-03-04T03:07:20.701Z,2.57
2023-03-04T03:09:50.278Z,2.00
2023-03-04T03:12:19.727Z,1.63
2023-03-04T03:14:49.184Z,1.90
2023-03-04T03:17:18.678Z,2.57
2023-03-04T03:19:48.137Z,2.47
2023-03-04T03:22:17.601Z,1.27
2023-03-04T03:24:47.076Z,0.70
2023-03-04T03:27:16.518Z,3.63
2023-03-04T03:29:45.945Z,3.47
2023-03-04T03:32:15.428Z,2.80
2023-03-04T03:34:44.894Z,2.47
2023-03-04T03:37:15.567Z,2.43
2023-03-04T03:39:45.152Z,2.07
2023-03-04T03:42:14.574Z,2.47
2023-03-04T03:44:44.071Z,3.73
2023-03-04T03:47:13.529Z,1.20
2023-03-04T03:49:42.988Z,1.30
2023-03-04T03:52:12.442Z,1.20
2023-03-04T03:54:41.914Z,1.83
2023-03-04T03:57:11.347Z,1.63
2023-03-04T03:59:40.801Z,1.23
2023-03-04T04:02:10.431Z,1.23
2023-03-04T04:04:40.042Z,2.70
2023-03-04T04:07:09.497Z,3.27
2023-03-04T04:09:38.950Z,1.77
2023-03-04T04:12:09.363Z,1.33
2023-03-04T04:14:38.821Z,1.83
2023-03-04T04:17:08.337Z,0.90
2023-03-04T04:19:38.693Z,3.77
2023-03-04T04:22:09.604Z,2.73
2023-03-04T04:24:39.082Z,3.00
2023-03-04T04:27:08.547Z,1.50
2023-03-04T04:29:38.185Z,2.10
2023-03-04T04:32:08.928Z,1.53
2023-03-04T04:34:38.378Z,2.57
2023-03-04T04:37:07.954Z,2.37
2023-03-04T04:39:57.341Z,1.13
2023-03-04T04:42:26.946Z,1.95
2023-03-04T04:44:57.672Z,0.87
2023-03-04T04:47:27.126Z,1.03
2023-03-04T04:49:56.953Z,1.47
2023-03-04T04:52:26.421Z,1.00
2023-03-04T04:54:55.955Z,0.60
2023-03-04T04:57:25.404Z,0.60
2023-03-04T04:59:54.866Z,2.13
2023-03-04T05:02:24.321Z,1.53
2023-03-04T05:04:53.883Z,1.93
2023-03-04T05:07:23.596Z,2.63
2023-03-04T05:09:53.103Z,1.93
2023-03-04T05:12:22.578Z,0.70
2023-03-04T05:14:52.106Z,0.57
2023-03-04T05:17:21.615Z,0.40
2023-03-04T05:19:51.119Z,0.97
2023-03-04T05:22:20.590Z,2.73
2023-03-04T05:24:50.031Z,0.90
2023-03-04T05:27:19.496Z,1.47
2023-03-04T05:29:48.947Z,1.10
2023-03-04T05:32:18.474Z,1.23
2023-03-04T05:34:47.997Z,1.00
2023-03-04T05:37:17.504Z,0.70
2023-03-04T05:39:46.971Z,1.37
2023-03-04T05:42:16.426Z,0.63
2023-03-04T05:44:45.983Z,0.80
2023-03-04T05:47:15.447Z,1.87
2023-03-04T05:49:44.935Z,1.43
2023-03-04T05:52:14.371Z,1.43
2023-03-04T05:54:43.854Z,1.50
2023-03-04T05:57:13.333Z,2.10
2023-03-04T05:59:42.818Z,1.40
2023-03-04T06:02:12.378Z,1.03
2023-03-04T06:04:41.832Z,0.97
2023-03-04T06:07:11.318Z,1.07
2023-03-04T06:09:40.784Z,2.40
2023-03-04T06:12:10.247Z,1.53
2023-03-04T06:14:39.704Z,0.87
2023-03-04T06:17:09.199Z,1.23
2023-03-04T06:19:38.672Z,0.80
2023-03-04T06:22:08.892Z,1.60
2023-03-04T06:24:39.024Z,0.63
2023-03-04T06:27:08.482Z,1.57
2023-03-04T06:29:37.924Z,1.63
2023-03-04T06:32:07.577Z,0.33
2023-03-04T06:34:37.404Z,1.40
2023-03-04T06:37:06.826Z,1.33
2023-03-04T06:39:36.758Z,0.83
2023-03-04T06:42:06.295Z,1.43
2023-03-04T06:44:35.770Z,0.57
2023-03-04T06:47:05.379Z,0.97
2023-03-04T06:49:34.844Z,0.90
2023-03-04T06:52:04.850Z,0.40
2023-03-04T06:54:34.294Z,0.53
2023-03-04T06:57:03.778Z,1.10
2023-03-04T06:59:33.342Z,0.50
2023-03-04T07:02:03.091Z,0.90
2023-03-04T07:04:32.518Z,0.70
2023-03-04T07:07:01.948Z,0.90
2023-03-04T07:09:31.453Z,0.93
2023-03-04T07:12:00.894Z,0.50
2023-03-04T07:14:30.310Z,0.40
2023-03-04T07:16:59.879Z,0.73
2023-03-04T07:19:29.982Z,1.20
2023-03-04T07:21:59.406Z,2.17
2023-03-04T07:24:28.862Z,2.40
2023-03-04T07:26:58.616Z,1.10
2023-03-04T07:29:28.056Z,1.20
2023-03-04T07:31:57.738Z,1.23
2023-03-04T07:34:27.516Z,1.17
2023-03-04T07:36:56.961Z,1.33
2023-03-04T07:39:26.458Z,0.47
2023-03-04T07:41:56.722Z,0.70
2023-03-04T07:44:26.114Z,0.97
2023-03-04T07:46:55.652Z,0.80
2023-03-04T07:49:25.128Z,0.60
2023-03-04T07:51:54.570Z,0.77
2023-03-04T07:54:23.992Z,0.60
2023-03-04T07:56:53.817Z,0.50
2023-03-04T07:59:23.211Z,0.60
2023-03-04T08:01:52.926Z,0.60
2023-03-04T08:04:22.360Z,0.60
2023-03-04T08:06:51.849Z,0.73
2023-03-04T08:09:21.268Z,1.43
2023-03-04T08:11:50.858Z,0.77
2023-03-04T08:14:20.290Z,1.60
2023-03-04T08:16:49.750Z,0.70
2023-03-04T08:19:19.170Z,0.70
2023-03-04T08:21:48.616Z,0.40
2023-03-04T08:24:18.043Z,1.40
2023-03-04T08:26:51.098Z,0.50
2023-03-04T08:29:24.196Z,0.77
2023-03-04T08:31:55.916Z,0.33
2023-03-04T08:34:28.885Z,0.47
2023-03-04T08:36:58.310Z,0.70
2023-03-04T08:39:27.728Z,0.37
2023-03-04T08:41:57.165Z,0.77
2023-03-04T08:44:26.874Z,0.53
2023-03-04T08:46:56.335Z,1.17
2023-03-04T08:49:25.765Z,0.90
2023-03-04T08:51:55.212Z,0.60
2023-03-04T08:54:24.649Z,0.67
2023-03-04T08:56:54.104Z,0.50
2023-03-04T08:59:23.528Z,1.00
2023-03-04T09:01:53.029Z,0.83
2023-03-04T09:04:22.465Z,1.27
2023-03-04T09:06:53.961Z,0.83
2023-03-04T09:09:23.051Z,2.50
2023-03-04T09:11:52.570Z,1.63
2023-03-04T09:14:21.995Z,0.60
2023-03-04T09:16:51.503Z,1.00
2023-03-04T09:19:21.005Z,0.70
2023-03-04T09:21:50.762Z,2.30
2023-03-04T09:24:20.196Z,1.20
2023-03-04T09:26:54.477Z,2.57
2023-03-04T09:29:24.857Z,1.57
2023-03-04T09:31:54.290Z,1.23
2023-03-04T09:34:23.984Z,3.80
2023-03-04T09:36:53.434Z,2.80
2023-03-04T09:39:22.865Z,2.87
2023-03-04T09:41:57.526Z,4.33
2023-03-04T09:44:40.868Z,1.60
2023-03-04T09:47:15.010Z,1.77
2023-03-04T09:49:48.877Z,2.63
2023-03-04T09:52:43.707Z,1.50
2023-03-04T09:55:26.411Z,2.67
2023-03-04T09:58:28.941Z,2.07
2023-03-04T10:01:18.231Z,3.43
2023-03-04T10:04:05.584Z,3.20
2023-03-04T10:06:36.812Z,1.67
2023-03-04T10:09:22.993Z,2.67
2023-03-04T10:12:01.502Z,1.97
2023-03-04T10:14:35.571Z,2.43
2023-03-04T10:17:24.662Z,2.47
2023-03-04T10:20:09.946Z,2.20
2023-03-04T10:22:51.822Z,1.70
2023-03-04T10:25:31.436Z,3.07
2023-03-04T10:28:05.322Z,4.53
2023-03-04T10:30:45.272Z,2.93
2023-03-04T10:33:18.999Z,3.10
2023-03-04T10:36:02.048Z,1.73
2023-03-04T10:38:38.468Z,4.57
2023-03-04T10:41:20.347Z,2.87
2023-03-04T10:44:12.136Z,2.23
2023-03-04T10:46:44.001Z,3.57
2023-03-04T10:49:17.033Z,3.03
2023-03-04T10:51:51.698Z,4.20
2023-03-04T10:54:34.075Z,2.33
2023-03-04T10:57:17.070Z,3.77
2023-03-04T11:00:17.117Z,2.80
2023-03-04T11:02:49.670Z,2.53
2023-03-04T11:05:23.134Z,3.17
2023-03-04T11:07:57.743Z,3.07
2023-03-04T11:10:34.735Z,4.67
2023-03-04T11:13:18.079Z,1.97
2023-03-04T11:16:07.407Z,4.73
2023-03-04T11:18:56.239Z,3.70
2023-03-04T11:21:30.465Z,4.60
2023-03-04T11:24:09.487Z,3.43
2023-03-04T11:26:58.177Z,2.30
2023-03-04T11:29:37.926Z,5.17
2023-03-04T11:32:15.190Z,4.10
2023-03-04T11:35:06.070Z,2.20
2023-03-04T11:38:23.953Z,5.77
2023-03-04T11:41:16.767Z,4.70
2023-03-04T11:43:48.579Z,6.43
2023-03-04T11:46:55.630Z,4.17
2023-03-04T11:49:58.352Z,4.50
2023-03-04T11:53:06.920Z,4.27
2023-03-04T11:55:43.626Z,3.57
2023-03-04T11:58:38.864Z,2.33
2023-03-04T12:01:25.432Z,3.47
2023-03-04T12:04:12.194Z,4.77
2023-03-04T12:07:01.025Z,2.10
2023-03-04T12:09:44.308Z,1.93
2023-03-04T12:12:34.850Z,3.27
2023-03-04T12:15:26.811Z,2.30
2023-03-04T12:18:21.783Z,2.23
2023-03-04T12:21:18.479Z,2.73
2023-03-04T12:24:06.900Z,4.57
2023-03-04T12:26:55.845Z,4.43
2023-03-04T12:29:32.785Z,4.90
2023-03-04T12:32:55.525Z,3.60
2023-03-04T12:35:38.225Z,3.20
2023-03-04T12:38:30.452Z,2.53
2023-03-04T12:41:47.037Z,1.73
2023-03-04T12:44:22.940Z,3.20
2023-03-04T12:47:10.484Z,3.10
2023-03-04T12:50:08.672Z,2.77
2023-03-04T12:53:18.536Z,3.37
2023-03-04T12:55:51.244Z,4.27
2023-03-04T12:58:33.232Z,2.77
2023-03-04T13:01:25.377Z,2.20
2023-03-04T13:04:02.296Z,1.77
2023-03-04T13:06:45.366Z,1.57
2023-03-04T13:09:28.250Z,2.60
2023-03-04T13:12:22.193Z,2.37
2023-03-04T13:15:14.002Z,3.27
2023-03-04T13:18:22.607Z,1.90
2023-03-04T13:21:14.847Z,2.77
2023-03-04T13:23:44.605Z,3.43
2023-03-04T13:26:37.427Z,2.17
2023-03-04T13:29:23.617Z,2.50
2023-03-04T13:32:11.487Z,2.27
2023-03-04T13:34:54.794Z,3.00
2023-03-04T13:37:36.491Z,2.87
2023-03-04T13:40:34.480Z,2.37
2023-03-04T13:43:31.260Z,2.50
2023-03-04T13:46:03.731Z,2.90
2023-03-04T13:48:37.323Z,1.83
2023-03-04T13:51:20.415Z,3.47
2023-03-04T13:53:44.806Z,3.30
2023-03-04T13:56:37.299Z,2.77
2023-03-04T13:59:16.818Z,3.33
2023-03-04T14:02:05.428Z,3.70
2023-03-04T14:04:41.235Z,3.63
2023-03-04T14:07:32.831Z,2.67
2023-03-04T14:10:07.435Z,4.03
2023-03-04T14:12:43.212Z,3.10
2023-03-04T14:15:31.479Z,2.70
2023-03-04T14:18:05.092Z,4.03
2023-03-04T14:20:42.659Z,2.23
2023-03-04T14:23:36.739Z,3.43
2023-03-04T14:26:12.378Z,3.07
2023-03-04T14:28:52.149Z,2.60
2023-03-04T14:31:27.485Z,5.03
2023-03-04T14:34:02.888Z,2.67
2023-03-04T14:36:36.881Z,2.63
2023-03-04T14:39:08.667Z,3.50
2023-03-04T14:41:43.370Z,3.33
2023-03-04T14:44:41.308Z,2.20
2023-03-04T14:47:36.332Z,1.97
2023-03-04T14:50:19.290Z,7.03
2023-03-04T14:52:54.780Z,4.90
2023-03-04T14:55:28.371Z,4.70
2023-03-04T14:58:10.935Z,7.80
2023-03-04T15:00:41.277Z,2.63
2023-03-04T15:03:30.240Z,2.73
2023-03-04T15:06:19.040Z,2.10
2023-03-04T15:08:52.535Z,3.23
2023-03-04T15:11:31.712Z,3.03
2023-03-04T15:14:02.808Z,2.27
2023-03-04T15:16:36.896Z,4.60
2023-03-04T15:19:10.580Z,2.80
2023-03-04T15:21:42.377Z,3.83
2023-03-04T15:24:13.656Z,3.80
2023-03-04T15:26:46.086Z,2.00
2023-03-04T15:29:19.985Z,2.13
2023-03-04T15:31:50.547Z,0.80
2023-03-04T15:34:22.087Z,1.70
2023-03-04T15:36:53.014Z,1.77
2023-03-04T15:39:23.425Z,1.47
2023-03-04T15:41:52.848Z,1.67
2023-03-04T15:44:22.446Z,1.23
2023-03-04T15:46:51.909Z,1.00
2023-03-04T15:49:21.782Z,0.80
2023-03-04T15:51:52.774Z,2.77
2023-03-04T15:54:25.802Z,3.83
2023-03-04T15:56:57.089Z,1.57
2023-03-04T15:59:27.519Z,1.57
2023-03-04T16:01:57.037Z,1.70
2023-03-04T16:04:26.586Z,0.70
2023-03-04T16:06:57.623Z,0.87
2023-03-04T16:09:27.049Z,1.23
2023-03-04T16:11:58.596Z,1.37
2023-03-04T16:14:28.126Z,1.50
2023-03-04T16:16:57.557Z,0.70
2023-03-04T16:19:27.454Z,1.37
2023-03-04T16:21:56.896Z,1.97
2023-03-04T16:24:26.749Z,1.30
2023-03-04T16:26:56.250Z,3.03
2023-03-04T16:29:25.687Z,3.27
2023-03-04T16:31:56.203Z,2.37
2023-03-04T16:34:25.687Z,2.37
2023-03-04T16:36:55.130Z,1.77
2023-03-04T16:39:26.491Z,2.03
2023-03-04T16:41:56.007Z,2.00
2023-03-04T16:44:25.652Z,2.77
2023-03-04T16:46:55.075Z,2.30
2023-03-04T16:49:24.524Z,0.90
2023-03-04T16:51:53.956Z,1.43
2023-03-04T16:54:28.503Z,1.07
2023-03-04T16:56:59.261Z,1.30
2023-03-04T16:59:29.489Z,1.50
2023-03-04T17:01:58.981Z,2.67
2023-03-04T17:04:29.388Z,1.50
2023-03-04T17:06:59.766Z,2.23
2023-03-04T17:09:29.295Z,1.30
2023-03-04T17:12:00.069Z,1.00
2023-03-04T17:14:29.705Z,0.67
2023-03-04T17:16:59.326Z,0.93
2023-03-04T17:19:28.853Z,1.43
2023-03-04T17:22:00.127Z,0.93
2023-03-04T17:24:30.355Z,1.60
2023-03-04T17:26:59.942Z,1.53
2023-03-04T17:29:29.370Z,1.47
2023-03-04T17:31:58.842Z,1.60
2023-03-04T17:34:28.237Z,1.17
2023-03-04T17:36:57.658Z,2.03
2023-03-04T17:39:27.203Z,1.10
2023-03-04T17:41:57.047Z,2.37
2023-03-04T17:44:26.477Z,1.30
2023-03-04T17:46:57.462Z,0.77
2023-03-04T17:49:27.874Z,2.27
2023-03-04T17:51:57.283Z,1.10
2023-03-04T17:54:27.950Z,2.63
2023-03-04T17:56:57.407Z,4.23
2023-03-04T17:59:26.833Z,1.93
2023-03-04T18:01:56.355Z,2.50
2023-03-04T18:04:25.913Z,1.00
2023-03-04T18:06:55.350Z,0.80
2023-03-04T18:09:24.798Z,0.70
2023-03-04T18:11:54.210Z,2.27
2023-03-04T18:14:23.663Z,1.07
2023-03-04T18:16:53.403Z,2.67
2023-03-04T18:19:22.860Z,0.93
2023-03-04T18:21:52.274Z,2.30
2023-03-04T18:24:21.981Z,1.80
2023-03-04T18:26:51.782Z,1.10
2023-03-04T18:29:21.529Z,0.93
2023-03-04T18:31:51.076Z,1.50
2023-03-04T18:34:20.525Z,0.70
2023-03-04T18:36:51.860Z,1.30
2023-03-04T18:39:21.355Z,0.80
2023-03-04T18:41:50.888Z,1.00
2023-03-04T18:44:20.391Z,0.97
2023-03-04T18:46:54.396Z,1.77
2023-03-04T18:49:24.590Z,0.90
2023-03-04T18:51:54.756Z,1.07
2023-03-04T18:54:24.217Z,0.70
2023-03-04T18:57:06.834Z,1.47
2023-03-04T18:59:46.240Z,1.33
2023-03-04T19:02:28.946Z,1.23
2023-03-04T19:05:03.309Z,1.60
2023-03-04T19:07:32.750Z,0.97
2023-03-04T19:10:02.286Z,1.53
2023-03-04T19:12:31.864Z,2.10
2023-03-04T19:15:01.751Z,1.50
2023-03-04T19:17:32.666Z,0.83
2023-03-04T19:20:02.737Z,2.33
2023-03-04T19:22:32.336Z,1.13
2023-03-04T19:25:02.019Z,1.97
2023-03-04T19:27:32.120Z,0.90
2023-03-04T19:30:01.554Z,0.97
2023-03-04T19:32:31.016Z,1.10
2023-03-04T19:35:00.509Z,1.50
2023-03-04T19:37:29.995Z,1.20
2023-03-04T19:39:59.440Z,0.83
2023-03-04T19:42:28.872Z,0.70
2023-03-04T19:44:58.327Z,1.27
2023-03-04T19:47:27.727Z,0.90
2023-03-04T19:49:57.229Z,1.27
2023-03-04T19:52:26.663Z,1.67
2023-03-04T19:54:56.220Z,1.50
2023-03-04T19:57:25.655Z,0.90
2023-03-04T19:59:55.078Z,1.60
2023-03-04T20:02:24.502Z,1.83
2023-03-04T20:04:53.949Z,0.77
2023-03-04T20:07:23.369Z,0.77
2023-03-04T20:09:54.333Z,0.80
2023-03-04T20:12:24.194Z,1.70
2023-03-04T20:14:53.764Z,1.43
2023-03-04T20:17:23.185Z,0.77
2023-03-04T20:19:52.680Z,1.43
2023-03-04T20:22:22.119Z,1.17
2023-03-04T20:24:53.171Z,1.50
2023-03-04T20:27:22.833Z,1.20
2023-03-04T20:29:52.826Z,2.40
2023-03-04T20:32:22.323Z,2.57
2023-03-04T20:34:53.392Z,4.33
2023-03-04T20:37:23.768Z,2.27
2023-03-04T20:39:53.189Z,2.03
2023-03-04T20:42:22.624Z,1.50
2023-03-04T20:44:52.227Z,0.63
2023-03-04T20:47:21.650Z,1.20
2023-03-04T20:49:51.131Z,1.63
2023-03-04T20:52:20.611Z,0.90
2023-03-04T20:54:50.164Z,0.80
2023-03-04T20:57:19.698Z,0.60
2023-03-04T20:59:49.167Z,0.60
2023-03-04T21:02:20.589Z,1.92
2023-03-04T21:04:50.162Z,2.47
2023-03-04T21:07:19.764Z,1.17
2023-03-04T21:09:49.232Z,1.23
2023-03-04T21:12:18.685Z,0.80
2023-03-04T21:14:48.232Z,0.90
2023-03-04T21:17:17.922Z,1.63
2023-03-04T21:19:47.384Z,1.00
2023-03-04T21:22:20.364Z,1.00
2023-03-04T21:24:49.820Z,0.93
2023-03-04T21:27:19.298Z,1.13
2023-03-04T21:29:49.597Z,2.20
2023-03-04T21:32:28.724Z,1.33
2023-03-04T21:34:58.243Z,2.10
2023-03-04T21:37:28.124Z,0.90
2023-03-04T21:39:58.259Z,1.60
2023-03-04T21:42:27.708Z,0.90
2023-03-04T21:44:57.159Z,0.73
2023-03-04T21:47:26.662Z,1.23
2023-03-04T21:49:56.191Z,0.73
2023-03-04T21:52:25.938Z,0.80
2023-03-04T21:54:56.105Z,0.50
2023-03-04T21:57:25.619Z,0.97
2023-03-04T21:59:55.098Z,1.13
2023-03-04T22:02:26.149Z,0.67
2023-03-04T22:04:55.666Z,1.23
2023-03-04T22:07:25.184Z,1.47
2023-03-04T22:09:55.493Z,0.97
2023-03-04T22:12:24.901Z,0.80
2023-03-04T22:14:54.349Z,1.27
2023-03-04T22:17:23.894Z,0.90
2023-03-04T22:19:53.776Z,0.90
2023-03-04T22:22:23.173Z,1.37
2023-03-04T22:24:52.621Z,0.73
2023-03-04T22:27:22.050Z,0.40
2023-03-04T22:29:51.491Z,1.10
2023-03-04T22:32:20.979Z,1.33
2023-03-04T22:34:50.449Z,0.77
2023-03-04T22:37:19.870Z,0.67
2023-03-04T22:39:49.309Z,2.30
2023-03-04T22:42:18.719Z,0.60
2023-03-04T22:44:48.168Z,0.53
2023-03-04T22:47:17.579Z,1.80
2023-03-04T22:49:47.400Z,1.47
2023-03-04T22:52:16.821Z,1.20
2023-03-04T22:54:46.263Z,1.80
2023-03-04T22:57:15.754Z,2.00
2023-03-04T22:59:45.203Z,2.17
2023-03-04T23:02:14.697Z,1.00
2023-03-04T23:04:44.313Z,1.50
2023-03-04T23:07:13.738Z,2.23
2023-03-04T23:09:43.174Z,3.03
2023-03-04T23:12:12.608Z,2.50
2023-03-04T23:14:43.786Z,1.17
2023-03-04T23:17:13.188Z,1.70
2023-03-04T23:19:42.630Z,1.90
2023-03-04T23:22:12.048Z,1.27
2023-03-04T23:24:41.509Z,2.33
2023-03-04T23:27:11.495Z,1.23
2023-03-04T23:29:41.013Z,0.63
2023-03-04T23:32:10.737Z,1.70
2023-03-04T23:34:40.150Z,1.40
2023-03-04T23:37:09.568Z,1.27
2023-03-04T23:39:38.994Z,1.37
2023-03-04T23:42:08.764Z,1.83
2023-03-04T23:44:38.170Z,1.03
2023-03-04T23:47:07.895Z,1.50
2023-03-04T23:49:37.698Z,0.80
2023-03-04T23:52:07.718Z,1.03
2023-03-04T23:54:37.236Z,2.57
2023-03-04T23:57:06.646Z,0.73
2023-03-04T23:59:37.729Z,0.90
